createdAt,value
2023-03-03T00:00:12.588Z,1009.19
2023-03-03T00:00:33.637Z,1009.19
2023-03-03T00:00:54.709Z,1009.17
2023-03-03T00:01:15.822Z,1009.21
2023-03-03T00:01:36.892Z,1009.19
2023-03-03T00:01:58.030Z,1009.21
2023-03-03T00:02:19.180Z,1009.21
2023-03-03T00:02:40.334Z,1009.21
2023-03-03T00:03:01.434Z,1009.23
2023-03-03T00:03:22.698Z,1009.21
2023-03-03T00:03:43.805Z,1009.21
2023-03-03T00:04:04.848Z,1009.23
2023-03-03T00:04:25.926Z,1009.25
2023-03-03T00:04:47.049Z,1009.25
2023-03-03T00:05:08.105Z,1009.19
2023-03-03T00:05:29.143Z,1009.27
2023-03-03T00:05:50.244Z,1009.23
2023-03-03T00:06:11.268Z,1009.21
2023-03-03T00:06:32.392Z,1009.23
2023-03-03T00:06:53.458Z,1009.21
2023-03-03T00:07:14.523Z,1009.23
2023-03-03T00:07:35.632Z,1009.21
2023-03-03T00:07:56.675Z,1009.21
2023-03-03T00:08:17.767Z,1009.23
2023-03-03T00:08:38.840Z,1009.19
2023-03-03T00:08:59.893Z,1009.23
2023-03-03T00:09:20.938Z,1009.19
2023-03-03T00:09:42.004Z,1009.25
2023-03-03T00:10:03.068Z,1009.21
2023-03-03T00:10:24.143Z,1009.23
2023-03-03T00:10:45.199Z,1009.25
2023-03-03T00:11:06.254Z,1009.27
2023-03-03T00:11:27.307Z,1009.25
2023-03-03T00:11:48.394Z,1009.27
2023-03-03T00:12:09.481Z,1009.31
2023-03-03T00:12:30.517Z,1009.31
2023-03-03T00:12:51.579Z,1009.31
2023-03-03T00:13:12.670Z,1009.29
2023-03-03T00:13:33.724Z,1009.29
2023-03-03T00:13:54.831Z,1009.31
2023-03-03T00:14:15.873Z,1009.31
2023-03-03T00:14:36.911Z,1009.31
2023-03-03T00:14:57.977Z,1009.33
2023-03-03T00:15:19.112Z,1009.31
2023-03-03T00:15:40.184Z,1009.33
2023-03-03T00:16:01.262Z,1009.33
2023-03-03T00:16:22.351Z,1009.31
2023-03-03T00:16:43.414Z,1009.33
2023-03-03T00:17:04.457Z,1009.33
2023-03-03T00:17:25.557Z,1009.33
2023-03-03T00:17:46.627Z,1009.35
2023-03-03T00:18:07.679Z,1009.33
2023-03-03T00:18:28.766Z,1009.31
2023-03-03T00:18:49.844Z,1009.35
2023-03-03T00:19:11.072Z,1009.33
2023-03-03T00:19:32.168Z,1009.35
2023-03-03T00:19:53.276Z,1009.37
2023-03-03T00:20:14.338Z,1009.33
2023-03-03T00:20:35.390Z,1009.35
2023-03-03T00:20:56.446Z,1009.35
2023-03-03T00:21:17.498Z,1009.37
2023-03-03T00:21:38.553Z,1009.39
2023-03-03T00:21:59.618Z,1009.35
2023-03-03T00:22:20.713Z,1009.37
2023-03-03T00:22:41.802Z,1009.39
2023-03-03T00:23:02.845Z,1009.39
2023-03-03T00:23:23.901Z,1009.41
2023-03-03T00:23:44.934Z,1009.41
2023-03-03T00:24:05.993Z,1009.43
2023-03-03T00:24:27.082Z,1009.43
2023-03-03T00:24:48.140Z,1009.44
2023-03-03T00:25:09.192Z,1009.43
2023-03-03T00:25:30.304Z,1009.43
2023-03-03T00:25:51.366Z,1009.44
2023-03-03T00:26:12.457Z,1009.46
2023-03-03T00:26:33.499Z,1009.48
2023-03-03T00:26:54.564Z,1009.46
2023-03-03T00:27:15.621Z,1009.46
2023-03-03T00:27:36.693Z,1009.50
2023-03-03T00:27:57.749Z,1009.44
2023-03-03T00:28:18.851Z,1009.44
2023-03-03T00:28:39.913Z,1009.46
2023-03-03T00:29:00.956Z,1009.44
2023-03-03T00:29:22.026Z,1009.48
2023-03-03T00:29:43.111Z,1009.48
2023-03-03T00:30:04.206Z,1009.48
2023-03-03T00:30:25.260Z,1009.46
2023-03-03T00:30:46.302Z,1009.46
2023-03-03T00:31:07.468Z,1009.46
2023-03-03T00:31:28.543Z,1009.48
2023-03-03T00:31:49.605Z,1009.48
2023-03-03T00:32:10.717Z,1009.50
2023-03-03T00:32:31.797Z,1009.52
2023-03-03T00:32:52.887Z,1009.48
2023-03-03T00:33:13.953Z,1009.48
2023-03-03T00:33:34.997Z,1009.48
2023-03-03T00:33:56.066Z,1009.48
2023-03-03T00:34:17.211Z,1009.48
2023-03-03T00:34:38.246Z,1009.52
2023-03-03T00:34:59.475Z,1009.52
2023-03-03T00:35:20.666Z,1009.50
2023-03-03T00:35:41.855Z,1009.52
2023-03-03T00:36:03.024Z,1009.50
2023-03-03T00:36:24.079Z,1009.50
2023-03-03T00:36:45.106Z,1009.52
2023-03-03T00:37:06.222Z,1009.54
2023-03-03T00:37:27.317Z,1009.52
2023-03-03T00:37:48.346Z,1009.54
2023-03-03T00:38:09.394Z,1009.54
2023-03-03T00:38:30.470Z,1009.54
2023-03-03T00:38:51.515Z,1009.52
2023-03-03T00:39:12.603Z,1009.54
2023-03-03T00:39:33.643Z,1009.56
2023-03-03T00:39:54.695Z,1009.56
2023-03-03T00:40:15.935Z,1009.58
2023-03-03T00:40:37.037Z,1009.56
2023-03-03T00:40:58.099Z,1009.58
2023-03-03T00:41:19.159Z,1009.58
2023-03-03T00:41:40.264Z,1009.58
2023-03-03T00:42:01.306Z,1009.58
2023-03-03T00:42:22.366Z,1009.56
2023-03-03T00:42:43.428Z,1009.56
2023-03-03T00:43:04.486Z,1009.56
2023-03-03T00:43:25.546Z,1009.56
2023-03-03T00:43:46.625Z,1009.56
2023-03-03T00:44:07.685Z,1009.58
2023-03-03T00:44:28.736Z,1009.60
2023-03-03T00:44:49.808Z,1009.58
2023-03-03T00:45:10.890Z,1009.58
2023-03-03T00:45:31.981Z,1009.58
2023-03-03T00:45:53.085Z,1009.56
2023-03-03T00:46:14.198Z,1009.56
2023-03-03T00:46:35.322Z,1009.56
2023-03-03T00:46:56.380Z,1009.54
2023-03-03T00:47:17.432Z,1009.54
2023-03-03T00:47:38.538Z,1009.54
2023-03-03T00:47:59.587Z,1009.56
2023-03-03T00:48:20.659Z,1009.52
2023-03-03T00:48:41.701Z,1009.52
2023-03-03T00:49:02.766Z,1009.54
2023-03-03T00:49:23.821Z,1009.54
2023-03-03T00:49:44.890Z,1009.52
2023-03-03T00:50:06.014Z,1009.54
2023-03-03T00:50:27.083Z,1009.52
2023-03-03T00:50:48.136Z,1009.56
2023-03-03T00:51:09.197Z,1009.52
2023-03-03T00:51:30.295Z,1009.54
2023-03-03T00:51:51.329Z,1009.52
2023-03-03T00:52:12.366Z,1009.56
2023-03-03T00:52:33.458Z,1009.54
2023-03-03T00:52:54.501Z,1009.54
2023-03-03T00:53:15.556Z,1009.56
2023-03-03T00:53:36.639Z,1009.50
2023-03-03T00:53:57.711Z,1009.50
2023-03-03T00:54:18.761Z,1009.52
2023-03-03T00:54:39.821Z,1009.52
2023-03-03T00:55:00.888Z,1009.52
2023-03-03T00:55:21.960Z,1009.52
2023-03-03T00:55:43.007Z,1009.52
2023-03-03T00:56:04.076Z,1009.54
2023-03-03T00:56:25.152Z,1009.54
2023-03-03T00:56:46.215Z,1009.52
2023-03-03T00:57:07.266Z,1009.58
2023-03-03T00:57:28.346Z,1009.52
2023-03-03T00:57:49.390Z,1009.52
2023-03-03T00:58:10.469Z,1009.54
2023-03-03T00:58:31.520Z,1009.54
2023-03-03T00:58:52.596Z,1009.56
2023-03-03T00:59:13.675Z,1009.56
2023-03-03T00:59:34.694Z,1009.56
2023-03-03T00:59:55.786Z,1009.56
2023-03-03T01:00:16.863Z,1009.56
2023-03-03T01:00:37.897Z,1009.56
2023-03-03T01:00:59.055Z,1009.56
2023-03-03T01:01:20.357Z,1009.58
2023-03-03T01:01:41.431Z,1009.56
2023-03-03T01:02:02.466Z,1009.56
2023-03-03T01:02:23.575Z,1009.56
2023-03-03T01:02:44.686Z,1009.52
2023-03-03T01:03:05.795Z,1009.56
2023-03-03T01:03:26.867Z,1009.56
2023-03-03T01:03:47.880Z,1009.52
2023-03-03T01:04:08.944Z,1009.52
2023-03-03T01:04:30.028Z,1009.54
2023-03-03T01:04:51.143Z,1009.52
2023-03-03T01:05:12.201Z,1009.54
2023-03-03T01:05:33.273Z,1009.54
2023-03-03T01:05:54.318Z,1009.54
2023-03-03T01:06:15.441Z,1009.54
2023-03-03T01:06:36.559Z,1009.56
2023-03-03T01:06:57.618Z,1009.54
2023-03-03T01:07:18.702Z,1009.54
2023-03-03T01:07:39.761Z,1009.58
2023-03-03T01:08:00.833Z,1009.58
2023-03-03T01:08:21.878Z,1009.56
2023-03-03T01:08:42.939Z,1009.58
2023-03-03T01:09:04.002Z,1009.58
2023-03-03T01:09:25.086Z,1009.56
2023-03-03T01:09:46.126Z,1009.60
2023-03-03T01:10:07.210Z,1009.56
2023-03-03T01:10:28.252Z,1009.56
2023-03-03T01:10:49.325Z,1009.60
2023-03-03T01:11:10.380Z,1009.58
2023-03-03T01:11:31.429Z,1009.56
2023-03-03T01:11:52.518Z,1009.60
2023-03-03T01:12:13.571Z,1009.58
2023-03-03T01:12:34.626Z,1009.58
2023-03-03T01:12:55.674Z,1009.60
2023-03-03T01:13:16.724Z,1009.58
2023-03-03T01:13:38.181Z,1009.60
2023-03-03T01:13:59.282Z,1009.60
2023-03-03T01:14:20.392Z,1009.58
2023-03-03T01:14:41.443Z,1009.60
2023-03-03T01:15:02.516Z,1009.60
2023-03-03T01:15:23.549Z,1009.58
2023-03-03T01:15:44.623Z,1009.60
2023-03-03T01:16:05.716Z,1009.58
2023-03-03T01:16:26.814Z,1009.58
2023-03-03T01:16:47.869Z,1009.58
2023-03-03T01:17:09.104Z,1009.56
2023-03-03T01:17:30.141Z,1009.56
2023-03-03T01:17:51.203Z,1009.56
2023-03-03T01:18:12.286Z,1009.56
2023-03-03T01:18:33.376Z,1009.52
2023-03-03T01:18:54.446Z,1009.52
2023-03-03T01:19:15.491Z,1009.52
2023-03-03T01:19:36.595Z,1009.52
2023-03-03T01:19:57.641Z,1009.52
2023-03-03T01:20:18.729Z,1009.52
2023-03-03T01:20:39.797Z,1009.54
2023-03-03T01:21:00.833Z,1009.54
2023-03-03T01:21:21.908Z,1009.52
2023-03-03T01:21:42.984Z,1009.52
2023-03-03T01:22:04.064Z,1009.54
2023-03-03T01:22:25.284Z,1009.56
2023-03-03T01:22:46.338Z,1009.56
2023-03-03T01:23:07.534Z,1009.54
2023-03-03T01:23:28.620Z,1009.54
2023-03-03T01:23:49.725Z,1009.56
2023-03-03T01:24:10.738Z,1009.56
2023-03-03T01:24:31.822Z,1009.58
2023-03-03T01:24:52.864Z,1009.60
2023-03-03T01:25:13.950Z,1009.56
2023-03-03T01:25:35.114Z,1009.56
2023-03-03T01:25:56.187Z,1009.56
2023-03-03T01:26:17.206Z,1009.56
2023-03-03T01:26:38.286Z,1009.58
2023-03-03T01:26:59.346Z,1009.56
2023-03-03T01:27:20.430Z,1009.56
2023-03-03T01:27:41.625Z,1009.56
2023-03-03T01:28:02.666Z,1009.54
2023-03-03T01:28:23.740Z,1009.56
2023-03-03T01:28:44.829Z,1009.58
2023-03-03T01:29:05.903Z,1009.54
2023-03-03T01:29:26.969Z,1009.56
2023-03-03T01:29:47.991Z,1009.56
2023-03-03T01:30:09.050Z,1009.54
2023-03-03T01:30:30.111Z,1009.56
2023-03-03T01:30:51.161Z,1009.52
2023-03-03T01:31:12.245Z,1009.56
2023-03-03T01:31:33.336Z,1009.52
2023-03-03T01:31:54.438Z,1009.54
2023-03-03T01:32:15.583Z,1009.54
2023-03-03T01:32:36.661Z,1009.52
2023-03-03T01:32:57.738Z,1009.52
2023-03-03T01:33:18.790Z,1009.50
2023-03-03T01:33:39.862Z,1009.50
2023-03-03T01:34:00.907Z,1009.50
2023-03-03T01:34:21.946Z,1009.52
2023-03-03T01:34:43.032Z,1009.50
2023-03-03T01:35:04.076Z,1009.48
2023-03-03T01:35:25.172Z,1009.46
2023-03-03T01:35:46.296Z,1009.50
2023-03-03T01:36:08.301Z,1009.46
2023-03-03T01:36:29.343Z,1009.48
2023-03-03T01:36:50.428Z,1009.48
2023-03-03T01:37:11.478Z,1009.50
2023-03-03T01:37:32.668Z,1009.48
2023-03-03T01:37:53.709Z,1009.50
2023-03-03T01:38:14.786Z,1009.50
2023-03-03T01:38:35.834Z,1009.48
2023-03-03T01:38:56.900Z,1009.50
2023-03-03T01:39:17.947Z,1009.52
2023-03-03T01:39:39.055Z,1009.52
2023-03-03T01:40:00.160Z,1009.52
2023-03-03T01:40:21.197Z,1009.52
2023-03-03T01:40:42.242Z,1009.52
2023-03-03T01:41:03.350Z,1009.50
2023-03-03T01:41:24.392Z,1009.54
2023-03-03T01:41:45.440Z,1009.54
2023-03-03T01:42:06.517Z,1009.52
2023-03-03T01:42:27.567Z,1009.52
2023-03-03T01:42:48.614Z,1009.52
2023-03-03T01:43:09.680Z,1009.54
2023-03-03T01:43:30.906Z,1009.50
2023-03-03T01:43:52.089Z,1009.52
2023-03-03T01:44:13.119Z,1009.52
2023-03-03T01:44:34.216Z,1009.52
2023-03-03T01:44:55.268Z,1009.54
2023-03-03T01:45:16.321Z,1009.52
2023-03-03T01:45:37.394Z,1009.48
2023-03-03T01:45:58.460Z,1009.48
2023-03-03T01:46:19.548Z,1009.50
2023-03-03T01:46:40.673Z,1009.50
2023-03-03T01:47:01.742Z,1009.48
2023-03-03T01:47:22.812Z,1009.50
2023-03-03T01:47:43.889Z,1009.48
2023-03-03T01:48:04.983Z,1009.52
2023-03-03T01:48:26.025Z,1009.50
2023-03-03T01:48:47.091Z,1009.52
2023-03-03T01:49:08.148Z,1009.52
2023-03-03T01:49:29.339Z,1009.52
2023-03-03T01:49:50.369Z,1009.52
2023-03-03T01:50:11.426Z,1009.48
2023-03-03T01:50:32.496Z,1009.50
2023-03-03T01:50:53.578Z,1009.50
2023-03-03T01:51:14.621Z,1009.50
2023-03-03T01:51:35.691Z,1009.52
2023-03-03T01:51:56.799Z,1009.50
2023-03-03T01:52:17.860Z,1009.50
2023-03-03T01:52:38.939Z,1009.52
2023-03-03T01:53:00.028Z,1009.50
2023-03-03T01:53:21.075Z,1009.48
2023-03-03T01:53:42.131Z,1009.50
2023-03-03T01:54:03.232Z,1009.48
2023-03-03T01:54:24.296Z,1009.46
2023-03-03T01:54:45.362Z,1009.46
2023-03-03T01:55:06.424Z,1009.48
2023-03-03T01:55:27.499Z,1009.46
2023-03-03T01:55:48.556Z,1009.48
2023-03-03T01:56:09.645Z,1009.46
2023-03-03T01:56:30.698Z,1009.46
2023-03-03T01:56:51.769Z,1009.48
2023-03-03T01:57:12.803Z,1009.44
2023-03-03T01:57:33.880Z,1009.46
2023-03-03T01:57:54.942Z,1009.44
2023-03-03T01:58:16.006Z,1009.43
2023-03-03T01:58:37.076Z,1009.43
2023-03-03T01:58:58.135Z,1009.43
2023-03-03T01:59:19.217Z,1009.43
2023-03-03T01:59:40.315Z,1009.43
2023-03-03T02:00:01.374Z,1009.46
2023-03-03T02:00:22.428Z,1009.44
2023-03-03T02:00:43.483Z,1009.43
2023-03-03T02:01:04.552Z,1009.46
2023-03-03T02:01:25.648Z,1009.43
2023-03-03T02:01:46.730Z,1009.44
2023-03-03T02:02:07.821Z,1009.44
2023-03-03T02:02:28.933Z,1009.41
2023-03-03T02:02:50.050Z,1009.41
2023-03-03T02:03:11.203Z,1009.41
2023-03-03T02:03:32.257Z,1009.41
2023-03-03T02:03:53.309Z,1009.41
2023-03-03T02:04:14.352Z,1009.43
2023-03-03T02:04:35.479Z,1009.44
2023-03-03T02:04:56.521Z,1009.44
2023-03-03T02:05:17.587Z,1009.43
2023-03-03T02:05:38.642Z,1009.41
2023-03-03T02:05:59.726Z,1009.46
2023-03-03T02:06:20.795Z,1009.46
2023-03-03T02:06:41.842Z,1009.43
2023-03-03T02:07:02.895Z,1009.43
2023-03-03T02:07:23.966Z,1009.41
2023-03-03T02:07:45.021Z,1009.43
2023-03-03T02:08:06.095Z,1009.43
2023-03-03T02:08:27.162Z,1009.41
2023-03-03T02:08:48.205Z,1009.43
2023-03-03T02:09:09.293Z,1009.41
2023-03-03T02:09:30.373Z,1009.41
2023-03-03T02:09:51.476Z,1009.41
2023-03-03T02:10:12.534Z,1009.39
2023-03-03T02:10:33.591Z,1009.35
2023-03-03T02:10:54.638Z,1009.35
2023-03-03T02:11:15.714Z,1009.37
2023-03-03T02:11:36.816Z,1009.33
2023-03-03T02:11:57.858Z,1009.37
2023-03-03T02:12:18.919Z,1009.35
2023-03-03T02:12:39.971Z,1009.35
2023-03-03T02:13:01.057Z,1009.33
2023-03-03T02:13:22.099Z,1009.33
2023-03-03T02:13:43.172Z,1009.33
2023-03-03T02:14:04.250Z,1009.33
2023-03-03T02:14:25.303Z,1009.33
2023-03-03T02:14:46.373Z,1009.33
2023-03-03T02:15:07.450Z,1009.33
2023-03-03T02:15:28.488Z,1009.31
2023-03-03T02:15:49.622Z,1009.33
2023-03-03T02:16:10.762Z,1009.31
2023-03-03T02:16:31.895Z,1009.33
2023-03-03T02:16:52.970Z,1009.33
2023-03-03T02:17:14.049Z,1009.33
2023-03-03T02:17:35.087Z,1009.33
2023-03-03T02:17:56.154Z,1009.33
2023-03-03T02:18:17.218Z,1009.35
2023-03-03T02:18:38.286Z,1009.33
2023-03-03T02:18:59.331Z,1009.35
2023-03-03T02:19:20.401Z,1009.33
2023-03-03T02:19:41.471Z,1009.33
2023-03-03T02:20:02.521Z,1009.33
2023-03-03T02:20:23.744Z,1009.33
2023-03-03T02:20:44.806Z,1009.35
2023-03-03T02:21:05.902Z,1009.35
2023-03-03T02:21:26.938Z,1009.35
2023-03-03T02:21:47.994Z,1009.35
2023-03-03T02:22:09.059Z,1009.35
2023-03-03T02:22:30.124Z,1009.37
2023-03-03T02:22:51.193Z,1009.35
2023-03-03T02:23:12.268Z,1009.41
2023-03-03T02:23:33.335Z,1009.37
2023-03-03T02:23:54.396Z,1009.37
2023-03-03T02:24:15.447Z,1009.39
2023-03-03T02:24:36.505Z,1009.39
2023-03-03T02:24:57.577Z,1009.41
2023-03-03T02:25:18.636Z,1009.41
2023-03-03T02:25:39.854Z,1009.43
2023-03-03T02:26:00.909Z,1009.43
2023-03-03T02:26:21.990Z,1009.43
2023-03-03T02:26:43.076Z,1009.43
2023-03-03T02:27:04.106Z,1009.43
2023-03-03T02:27:25.203Z,1009.43
2023-03-03T02:27:46.281Z,1009.44
2023-03-03T02:28:07.350Z,1009.41
2023-03-03T02:28:28.425Z,1009.41
2023-03-03T02:28:49.472Z,1009.41
2023-03-03T02:29:10.550Z,1009.41
2023-03-03T02:29:31.616Z,1009.41
2023-03-03T02:29:52.690Z,1009.41
2023-03-03T02:30:13.737Z,1009.39
2023-03-03T02:30:34.794Z,1009.37
2023-03-03T02:30:55.888Z,1009.37
2023-03-03T02:31:16.967Z,1009.37
2023-03-03T02:31:38.061Z,1009.37
2023-03-03T02:31:59.218Z,1009.37
2023-03-03T02:32:20.357Z,1009.41
2023-03-03T02:32:41.520Z,1009.37
2023-03-03T02:33:02.585Z,1009.39
2023-03-03T02:33:23.664Z,1009.39
2023-03-03T02:33:44.722Z,1009.37
2023-03-03T02:34:05.801Z,1009.39
2023-03-03T02:34:26.838Z,1009.37
2023-03-03T02:34:47.896Z,1009.39
2023-03-03T02:35:08.949Z,1009.43
2023-03-03T02:35:30.172Z,1009.41
2023-03-03T02:35:51.272Z,1009.43
2023-03-03T02:36:12.574Z,1009.44
2023-03-03T02:36:33.614Z,1009.41
2023-03-03T02:36:54.700Z,1009.41
2023-03-03T02:37:15.746Z,1009.43
2023-03-03T02:37:36.805Z,1009.43
2023-03-03T02:37:57.857Z,1009.41
2023-03-03T02:38:18.962Z,1009.44
2023-03-03T02:38:39.998Z,1009.43
2023-03-03T02:39:01.057Z,1009.44
2023-03-03T02:39:22.120Z,1009.43
2023-03-03T02:39:43.174Z,1009.44
2023-03-03T02:40:04.233Z,1009.48
2023-03-03T02:40:25.283Z,1009.46
2023-03-03T02:40:46.350Z,1009.44
2023-03-03T02:41:07.400Z,1009.48
2023-03-03T02:41:28.512Z,1009.46
2023-03-03T02:41:49.585Z,1009.48
2023-03-03T02:42:10.635Z,1009.48
2023-03-03T02:42:31.672Z,1009.50
2023-03-03T02:42:52.745Z,1009.52
2023-03-03T02:43:13.818Z,1009.50
2023-03-03T02:43:34.908Z,1009.48
2023-03-03T02:43:55.965Z,1009.50
2023-03-03T02:44:17.015Z,1009.48
2023-03-03T02:44:38.103Z,1009.48
2023-03-03T02:44:59.160Z,1009.50
2023-03-03T02:45:20.315Z,1009.48
2023-03-03T02:45:41.435Z,1009.48
2023-03-03T02:46:02.517Z,1009.50
2023-03-03T02:46:23.557Z,1009.48
2023-03-03T02:46:44.656Z,1009.50
2023-03-03T02:47:05.772Z,1009.46
2023-03-03T02:47:26.807Z,1009.48
2023-03-03T02:47:47.858Z,1009.50
2023-03-03T02:48:08.939Z,1009.50
2023-03-03T02:48:29.978Z,1009.48
2023-03-03T02:48:51.042Z,1009.50
2023-03-03T02:49:12.111Z,1009.50
2023-03-03T02:49:33.198Z,1009.48
2023-03-03T02:49:54.254Z,1009.50
2023-03-03T02:50:15.315Z,1009.50
2023-03-03T02:50:36.392Z,1009.54
2023-03-03T02:50:57.454Z,1009.52
2023-03-03T02:51:18.532Z,1009.48
2023-03-03T02:51:39.602Z,1009.52
2023-03-03T02:52:00.682Z,1009.50
2023-03-03T02:52:21.745Z,1009.50
2023-03-03T02:52:42.807Z,1009.54
2023-03-03T02:53:03.858Z,1009.50
2023-03-03T02:53:24.917Z,1009.50
2023-03-03T02:53:45.969Z,1009.50
2023-03-03T02:54:07.065Z,1009.48
2023-03-03T02:54:28.111Z,1009.50
2023-03-03T02:54:49.156Z,1009.50
2023-03-03T02:55:10.271Z,1009.52
2023-03-03T02:55:31.284Z,1009.52
2023-03-03T02:55:52.350Z,1009.54
2023-03-03T02:56:13.435Z,1009.54
2023-03-03T02:56:34.522Z,1009.54
2023-03-03T02:56:55.573Z,1009.56
2023-03-03T02:57:16.634Z,1009.52
2023-03-03T02:57:37.689Z,1009.54
2023-03-03T02:57:58.758Z,1009.52
2023-03-03T02:58:19.792Z,1009.54
2023-03-03T02:58:40.866Z,1009.56
2023-03-03T02:59:01.958Z,1009.52
2023-03-03T02:59:22.974Z,1009.52
2023-03-03T02:59:44.036Z,1009.50
2023-03-03T03:00:05.352Z,1009.52
2023-03-03T03:00:26.414Z,1009.50
2023-03-03T03:00:47.489Z,1009.54
2023-03-03T03:01:08.595Z,1009.52
2023-03-03T03:01:29.648Z,1009.54
2023-03-03T03:01:50.694Z,1009.54
2023-03-03T03:02:11.768Z,1009.48
2023-03-03T03:02:32.991Z,1009.50
2023-03-03T03:02:54.057Z,1009.52
2023-03-03T03:03:15.125Z,1009.52
2023-03-03T03:03:36.212Z,1009.54
2023-03-03T03:03:57.288Z,1009.56
2023-03-03T03:04:18.368Z,1009.56
2023-03-03T03:04:39.481Z,1009.56
2023-03-03T03:05:00.598Z,1009.54
2023-03-03T03:05:21.640Z,1009.58
2023-03-03T03:05:42.737Z,1009.52
2023-03-03T03:06:03.773Z,1009.52
2023-03-03T03:06:24.926Z,1009.54
2023-03-03T03:06:45.980Z,1009.52
2023-03-03T03:07:07.030Z,1009.52
2023-03-03T03:07:28.074Z,1009.52
2023-03-03T03:07:49.149Z,1009.54
2023-03-03T03:08:10.264Z,1009.52
2023-03-03T03:08:31.315Z,1009.50
2023-03-03T03:08:52.377Z,1009.52
2023-03-03T03:09:13.490Z,1009.50
2023-03-03T03:09:34.682Z,1009.52
2023-03-03T03:09:55.735Z,1009.50
2023-03-03T03:10:16.798Z,1009.54
2023-03-03T03:10:37.880Z,1009.52
2023-03-03T03:10:58.967Z,1009.54
2023-03-03T03:11:20.053Z,1009.54
2023-03-03T03:11:41.098Z,1009.54
2023-03-03T03:12:02.222Z,1009.56
2023-03-03T03:12:23.257Z,1009.58
2023-03-03T03:12:44.303Z,1009.58
2023-03-03T03:13:05.393Z,1009.58
2023-03-03T03:13:26.453Z,1009.60
2023-03-03T03:13:47.505Z,1009.58
2023-03-03T03:14:08.590Z,1009.58
2023-03-03T03:14:29.643Z,1009.56
2023-03-03T03:14:50.764Z,1009.58
2023-03-03T03:15:11.812Z,1009.56
2023-03-03T03:15:32.882Z,1009.56
2023-03-03T03:15:53.947Z,1009.56
2023-03-03T03:16:15.045Z,1009.56
2023-03-03T03:16:36.207Z,1009.56
2023-03-03T03:16:57.384Z,1009.54
2023-03-03T03:17:18.417Z,1009.56
2023-03-03T03:17:39.508Z,1009.56
2023-03-03T03:18:00.617Z,1009.54
2023-03-03T03:18:21.704Z,1009.54
2023-03-03T03:18:42.751Z,1009.54
2023-03-03T03:19:03.803Z,1009.54
2023-03-03T03:19:24.895Z,1009.52
2023-03-03T03:19:45.972Z,1009.54
2023-03-03T03:20:07.003Z,1009.54
2023-03-03T03:20:28.081Z,1009.54
2023-03-03T03:20:49.124Z,1009.52
2023-03-03T03:21:10.188Z,1009.52
2023-03-03T03:21:31.276Z,1009.52
2023-03-03T03:21:52.342Z,1009.52
2023-03-03T03:22:13.400Z,1009.52
2023-03-03T03:22:34.466Z,1009.54
2023-03-03T03:22:55.508Z,1009.52
2023-03-03T03:23:16.578Z,1009.52
2023-03-03T03:23:37.666Z,1009.50
2023-03-03T03:23:58.713Z,1009.52
2023-03-03T03:24:19.766Z,1009.52
2023-03-03T03:24:40.851Z,1009.52
2023-03-03T03:25:01.899Z,1009.54
2023-03-03T03:25:22.950Z,1009.54
2023-03-03T03:25:44.014Z,1009.50
2023-03-03T03:26:05.064Z,1009.54
2023-03-03T03:26:26.120Z,1009.52
2023-03-03T03:26:47.184Z,1009.52
2023-03-03T03:27:08.249Z,1009.54
2023-03-03T03:27:29.305Z,1009.54
2023-03-03T03:27:50.396Z,1009.54
2023-03-03T03:28:11.428Z,1009.56
2023-03-03T03:28:32.546Z,1009.54
2023-03-03T03:28:53.769Z,1009.58
2023-03-03T03:29:14.867Z,1009.58
2023-03-03T03:29:35.898Z,1009.56
2023-03-03T03:29:56.960Z,1009.56
2023-03-03T03:30:17.994Z,1009.60
2023-03-03T03:30:39.126Z,1009.56
2023-03-03T03:31:00.257Z,1009.58
2023-03-03T03:31:21.316Z,1009.58
2023-03-03T03:31:42.397Z,1009.58
2023-03-03T03:32:03.475Z,1009.58
2023-03-03T03:32:24.546Z,1009.58
2023-03-03T03:32:45.612Z,1009.58
2023-03-03T03:33:06.667Z,1009.58
2023-03-03T03:33:27.728Z,1009.56
2023-03-03T03:33:48.793Z,1009.58
2023-03-03T03:34:09.870Z,1009.60
2023-03-03T03:34:30.923Z,1009.60
2023-03-03T03:34:51.999Z,1009.58
2023-03-03T03:35:13.058Z,1009.56
2023-03-03T03:35:34.146Z,1009.60
2023-03-03T03:35:55.258Z,1009.60
2023-03-03T03:36:16.325Z,1009.58
2023-03-03T03:36:37.377Z,1009.60
2023-03-03T03:36:58.434Z,1009.62
2023-03-03T03:37:19.518Z,1009.62
2023-03-03T03:37:40.544Z,1009.64
2023-03-03T03:38:01.642Z,1009.64
2023-03-03T03:38:22.729Z,1009.66
2023-03-03T03:38:43.795Z,1009.66
2023-03-03T03:39:04.854Z,1009.70
2023-03-03T03:39:25.924Z,1009.66
2023-03-03T03:39:46.989Z,1009.66
2023-03-03T03:40:08.052Z,1009.66
2023-03-03T03:40:29.105Z,1009.70
2023-03-03T03:40:50.189Z,1009.68
2023-03-03T03:41:11.294Z,1009.70
2023-03-03T03:41:32.345Z,1009.70
2023-03-03T03:41:53.415Z,1009.70
2023-03-03T03:42:14.544Z,1009.72
2023-03-03T03:42:35.617Z,1009.74
2023-03-03T03:42:56.659Z,1009.68
2023-03-03T03:43:17.744Z,1009.66
2023-03-03T03:43:38.819Z,1009.68
2023-03-03T03:43:59.838Z,1009.68
2023-03-03T03:44:20.926Z,1009.68
2023-03-03T03:44:42.043Z,1009.72
2023-03-03T03:45:03.132Z,1009.72
2023-03-03T03:45:24.304Z,1009.72
2023-03-03T03:45:45.403Z,1009.72
2023-03-03T03:46:06.513Z,1009.72
2023-03-03T03:46:27.591Z,1009.72
2023-03-03T03:46:48.656Z,1009.70
2023-03-03T03:47:09.709Z,1009.70
2023-03-03T03:47:30.785Z,1009.74
2023-03-03T03:47:51.840Z,1009.72
2023-03-03T03:48:12.893Z,1009.72
2023-03-03T03:48:33.946Z,1009.74
2023-03-03T03:48:55.029Z,1009.74
2023-03-03T03:49:16.097Z,1009.76
2023-03-03T03:49:37.163Z,1009.70
2023-03-03T03:49:58.261Z,1009.74
2023-03-03T03:50:19.311Z,1009.72
2023-03-03T03:50:40.383Z,1009.72
2023-03-03T03:51:01.450Z,1009.76
2023-03-03T03:51:22.544Z,1009.74
2023-03-03T03:51:43.613Z,1009.74
2023-03-03T03:52:04.698Z,1009.76
2023-03-03T03:52:25.747Z,1009.76
2023-03-03T03:52:46.822Z,1009.76
2023-03-03T03:53:07.867Z,1009.76
2023-03-03T03:53:28.942Z,1009.76
2023-03-03T03:53:50.011Z,1009.78
2023-03-03T03:54:11.074Z,1009.74
2023-03-03T03:54:32.153Z,1009.74
2023-03-03T03:54:53.210Z,1009.72
2023-03-03T03:55:14.280Z,1009.74
2023-03-03T03:55:35.348Z,1009.72
2023-03-03T03:55:56.405Z,1009.74
2023-03-03T03:56:17.461Z,1009.72
2023-03-03T03:56:38.507Z,1009.72
2023-03-03T03:56:59.561Z,1009.68
2023-03-03T03:57:20.646Z,1009.70
2023-03-03T03:57:41.711Z,1009.70
2023-03-03T03:58:02.764Z,1009.70
2023-03-03T03:58:23.823Z,1009.72
2023-03-03T03:58:44.912Z,1009.70
2023-03-03T03:59:06.007Z,1009.72
2023-03-03T03:59:27.088Z,1009.74
2023-03-03T03:59:48.253Z,1009.74
2023-03-03T04:00:09.326Z,1009.72
2023-03-03T04:00:30.409Z,1009.72
2023-03-03T04:00:51.493Z,1009.72
2023-03-03T04:01:12.573Z,1009.74
2023-03-03T04:01:33.641Z,1009.74
2023-03-03T04:01:54.716Z,1009.72
2023-03-03T04:02:15.847Z,1009.72
2023-03-03T04:02:36.995Z,1009.72
2023-03-03T04:02:58.248Z,1009.70
2023-03-03T04:03:19.467Z,1009.72
2023-03-03T04:03:40.599Z,1009.72
2023-03-03T04:04:01.649Z,1009.72
2023-03-03T04:04:22.692Z,1009.72
2023-03-03T04:04:43.747Z,1009.72
2023-03-03T04:05:04.799Z,1009.72
2023-03-03T04:05:25.859Z,1009.74
2023-03-03T04:05:46.960Z,1009.72
2023-03-03T04:06:08.029Z,1009.72
2023-03-03T04:06:29.096Z,1009.72
2023-03-03T04:06:50.180Z,1009.72
2023-03-03T04:07:11.738Z,1009.74
2023-03-03T04:07:32.816Z,1009.74
2023-03-03T04:07:53.904Z,1009.72
2023-03-03T04:08:14.971Z,1009.74
2023-03-03T04:08:36.026Z,1009.76
2023-03-03T04:08:57.149Z,1009.72
2023-03-03T04:09:18.416Z,1009.72
2023-03-03T04:09:39.459Z,1009.76
2023-03-03T04:10:00.543Z,1009.76
2023-03-03T04:10:21.608Z,1009.78
2023-03-03T04:10:42.688Z,1009.70
2023-03-03T04:11:03.798Z,1009.76
2023-03-03T04:11:24.830Z,1009.78
2023-03-03T04:11:45.904Z,1009.72
2023-03-03T04:12:07.000Z,1009.74
2023-03-03T04:12:28.058Z,1009.74
2023-03-03T04:12:49.124Z,1009.76
2023-03-03T04:13:10.189Z,1009.78
2023-03-03T04:13:31.253Z,1009.78
2023-03-03T04:13:52.351Z,1009.80
2023-03-03T04:14:13.383Z,1009.80
2023-03-03T04:14:34.443Z,1009.76
2023-03-03T04:14:55.490Z,1009.80